createdAt,value
2022-11-23T00:02:15.058Z,7.21
2022-11-23T00:04:41.161Z,7.18
2022-11-23T00:07:07.332Z,7.24
2022-11-23T00:09:33.827Z,7.17
2022-11-23T00:12:00.088Z,7.20
2022-11-23T00:14:26.201Z,7.23
2022-11-23T00:16:52.304Z,7.24
2022-11-23T00:19:18.399Z,7.25
2022-11-23T00:21:44.507Z,7.23
2022-11-23T00:24:10.609Z,7.21
2022-11-23T00:26:36.743Z,7.27
2022-11-23T00:29:02.858Z,7.30
2022-11-23T00:31:28.957Z,7.29
2022-11-23T00:33:55.104Z,7.32
2022-11-23T00:36:21.233Z,7.29
2022-11-23T00:38:47.348Z,7.28
2022-11-23T00:41:13.483Z,7.34
2022-11-23T00:43:39.607Z,7.38
2022-11-23T00:46:05.691Z,7.29
2022-11-23T00:48:31.789Z,7.39
2022-11-23T00:50:57.943Z,7.39
2022-11-23T00:53:24.032Z,7.34
2022-11-23T00:55:50.139Z,7.35
2022-11-23T00:58:16.275Z,7.33
2022-11-23T01:00:42.392Z,7.34
2022-11-23T01:03:08.481Z,7.34
2022-11-23T01:05:34.605Z,7.37
2022-11-23T01:08:00.705Z,7.34
2022-11-23T01:10:26.809Z,7.31
2022-11-23T01:12:52.961Z,7.31
2022-11-23T01:15:19.044Z,7.21
2022-11-23T01:17:45.146Z,7.29
2022-11-23T01:20:11.272Z,7.24
2022-11-23T01:22:37.387Z,7.25
2022-11-23T01:25:03.481Z,7.28
2022-11-23T01:27:29.606Z,7.30
2022-11-23T01:29:55.732Z,7.28
2022-11-23T01:32:21.833Z,7.29
2022-11-23T01:34:48.243Z,7.28
2022-11-23T01:37:14.333Z,7.27
2022-11-23T01:39:40.419Z,7.23
2022-11-23T01:42:06.553Z,7.30
2022-11-23T01:44:32.650Z,7.30
2022-11-23T01:46:58.787Z,7.29
2022-11-23T01:49:24.904Z,7.23
2022-11-23T01:51:51.021Z,7.25
2022-11-23T01:54:17.129Z,7.35
2022-11-23T01:56:43.602Z,7.33
2022-11-23T01:59:09.696Z,7.42
2022-11-23T02:01:35.848Z,7.38
2022-11-23T02:04:01.979Z,7.38
2022-11-23T02:06:28.068Z,7.40
2022-11-23T02:08:54.160Z,7.39
2022-11-23T02:11:20.272Z,7.45
2022-11-23T02:13:46.359Z,7.47
2022-11-23T02:16:12.446Z,7.46
2022-11-23T02:18:38.569Z,7.45
2022-11-23T02:21:04.661Z,7.52
2022-11-23T02:23:30.751Z,7.46
2022-11-23T02:25:56.861Z,7.54
2022-11-23T02:28:22.957Z,7.54
2022-11-23T02:30:49.045Z,7.54
2022-11-23T02:33:15.164Z,7.53
2022-11-23T02:35:41.264Z,7.55
2022-11-23T02:38:07.356Z,7.56
2022-11-23T02:40:33.469Z,7.55
2022-11-23T02:42:59.563Z,7.57
2022-11-23T02:45:25.654Z,7.61
2022-11-23T02:47:51.756Z,7.63
2022-11-23T02:50:17.848Z,7.53
2022-11-23T02:52:43.941Z,7.55
2022-11-23T02:55:10.068Z,7.61
2022-11-23T02:57:36.164Z,7.60
2022-11-23T03:00:02.253Z,7.61
2022-11-23T03:02:28.375Z,7.60
2022-11-23T03:04:54.467Z,7.67
2022-11-23T03:07:20.642Z,7.64
2022-11-23T03:09:46.805Z,7.62
2022-11-23T03:12:12.905Z,7.62
2022-11-23T03:14:39.005Z,7.64
2022-11-23T03:17:05.124Z,7.63
2022-11-23T03:19:31.498Z,7.57
2022-11-23T03:21:57.813Z,7.58
2022-11-23T03:24:23.934Z,7.58
2022-11-23T03:26:50.035Z,7.55
2022-11-23T03:29:16.129Z,7.64
2022-11-23T03:31:42.257Z,7.60
2022-11-23T03:34:08.348Z,7.64
2022-11-23T03:36:34.457Z,7.64
2022-11-23T03:39:00.889Z,7.58
2022-11-23T03:41:26.984Z,7.65
2022-11-23T03:43:53.090Z,7.61
2022-11-23T03:46:19.198Z,7.60
2022-11-23T03:48:45.333Z,7.56
2022-11-23T03:51:11.417Z,7.60
2022-11-23T03:53:37.537Z,7.60
2022-11-23T03:56:03.637Z,7.54
2022-11-23T03:58:29.750Z,7.61
2022-11-23T04:00:56.214Z,7.71
2022-11-23T04:03:22.349Z,7.64
2022-11-23T04:05:48.433Z,7.55
2022-11-23T04:08:14.539Z,7.61
2022-11-23T04:10:40.638Z,7.54
2022-11-23T04:13:06.753Z,7.59
2022-11-23T04:15:32.871Z,7.53
2022-11-23T04:17:58.959Z,7.43
2022-11-23T04:20:25.052Z,7.54
2022-11-23T04:22:51.185Z,7.49
2022-11-23T04:25:17.269Z,7.49
2022-11-23T04:27:43.361Z,7.49
2022-11-23T04:30:09.464Z,7.40
2022-11-23T04:32:36.952Z,7.43
2022-11-23T04:35:03.054Z,7.44
2022-11-23T04:37:29.178Z,7.45
2022-11-23T04:39:55.280Z,7.52
2022-11-23T04:42:21.379Z,7.44
2022-11-23T04:44:47.775Z,7.38
2022-11-23T04:47:13.873Z,7.41
2022-11-23T04:49:39.978Z,7.38
2022-11-23T04:52:06.093Z,7.38
2022-11-23T04:54:32.188Z,7.44
2022-11-23T04:56:58.296Z,7.41
2022-11-23T04:59:24.391Z,7.37
2022-11-23T05:01:50.496Z,7.33
2022-11-23T05:04:18.060Z,7.32
2022-11-23T05:06:44.327Z,7.29
2022-11-23T05:09:10.435Z,7.32
2022-11-23T05:11:36.542Z,7.30
2022-11-23T05:14:02.668Z,7.37
2022-11-23T05:16:29.029Z,7.31
2022-11-23T05:18:55.122Z,7.30
2022-11-23T05:21:21.231Z,7.33
2022-11-23T05:23:47.329Z,7.25
2022-11-23T05:26:13.434Z,7.24
2022-11-23T05:28:40.952Z,7.20
2022-11-23T05:31:07.641Z,7.19
2022-11-23T05:33:33.732Z,7.20
2022-11-23T05:35:59.848Z,7.22
2022-11-23T05:38:25.959Z,7.22
2022-11-23T05:40:52.057Z,7.15
2022-11-23T05:43:18.167Z,7.23
2022-11-23T05:45:44.266Z,7.20
2022-11-23T05:48:10.375Z,7.20
2022-11-23T05:50:36.492Z,7.16
2022-11-23T05:53:02.585Z,7.17
2022-11-23T05:55:28.702Z,7.17
2022-11-23T05:57:54.828Z,7.13
2022-11-23T06:00:20.924Z,7.16
2022-11-23T06:02:47.011Z,7.20
2022-11-23T06:05:13.237Z,7.22
2022-11-23T06:07:40.365Z,7.20
2022-11-23T06:10:06.521Z,7.22
2022-11-23T06:12:32.718Z,7.21
2022-11-23T06:14:58.848Z,7.21
2022-11-23T06:17:25.097Z,7.17
2022-11-23T06:19:51.231Z,7.22
2022-11-23T06:22:17.403Z,7.23
2022-11-23T06:24:45.579Z,7.20
2022-11-23T06:27:16.686Z,7.21
2022-11-23T06:29:43.954Z,7.22
2022-11-23T06:32:10.050Z,7.22
2022-11-23T06:34:36.163Z,7.29
2022-11-23T06:37:02.251Z,7.17
2022-11-23T06:39:28.360Z,7.21
2022-11-23T06:42:06.403Z,7.27
2022-11-23T06:44:40.584Z,7.30
2022-11-23T06:47:06.692Z,7.29
2022-11-23T06:49:33.123Z,7.31
2022-11-23T06:51:59.314Z,7.32
2022-11-23T06:54:27.406Z,7.29
2022-11-23T06:56:53.700Z,7.29
2022-11-23T06:59:19.800Z,7.22
2022-11-23T07:01:45.952Z,7.23
2022-11-23T07:04:12.087Z,7.27
2022-11-23T07:06:38.202Z,7.30
2022-11-23T07:09:04.793Z,7.24
2022-11-23T07:11:30.887Z,7.30
2022-11-23T07:13:56.978Z,7.27
2022-11-23T07:16:23.092Z,7.30
2022-11-23T07:18:49.190Z,7.24
2022-11-23T07:21:15.281Z,7.25
2022-11-23T07:23:41.389Z,7.19
2022-11-23T07:26:07.502Z,7.21
2022-11-23T07:28:33.617Z,7.28
2022-11-23T07:30:59.721Z,7.28
2022-11-23T07:33:25.824Z,7.30
2022-11-23T07:35:51.915Z,7.27
2022-11-23T07:38:18.025Z,7.25
2022-11-23T07:40:44.124Z,7.19
2022-11-23T07:43:10.225Z,7.15
2022-11-23T07:45:36.412Z,7.17
2022-11-23T07:48:02.518Z,7.16
2022-11-23T07:50:28.614Z,7.09
2022-11-23T07:52:54.743Z,7.11
2022-11-23T07:55:20.825Z,7.12
2022-11-23T07:57:46.912Z,7.12
2022-11-23T08:00:13.033Z,7.13
2022-11-23T08:02:44.831Z,7.11
2022-11-23T08:05:19.087Z,7.07
2022-11-23T08:07:45.244Z,7.13
2022-11-23T08:10:11.401Z,7.08
2022-11-23T08:12:37.561Z,7.10
2022-11-23T08:15:03.661Z,7.15
2022-11-23T08:17:29.826Z,7.20
2022-11-23T08:19:55.947Z,7.24
2022-11-23T08:22:22.050Z,7.15
2022-11-23T08:24:48.135Z,7.21
2022-11-23T08:27:14.283Z,7.27
2022-11-23T08:29:40.380Z,7.25
2022-11-23T08:32:06.481Z,7.23
2022-11-23T08:34:32.671Z,7.27
2022-11-23T08:36:58.936Z,7.40
2022-11-23T08:39:25.036Z,7.47
2022-11-23T08:41:51.152Z,7.44
2022-11-23T08:44:17.260Z,7.48
2022-11-23T08:46:43.846Z,7.42
2022-11-23T08:49:10.024Z,7.51
2022-11-23T08:51:36.130Z,7.47
2022-11-23T08:54:02.239Z,7.49
2022-11-23T08:56:28.393Z,7.51
2022-11-23T08:58:54.482Z,7.54
2022-11-23T09:01:20.727Z,7.52
2022-11-23T09:03:46.880Z,7.56
2022-11-23T09:06:13.005Z,7.53
2022-11-23T09:08:39.201Z,7.63
2022-11-23T09:11:08.983Z,7.64
2022-11-23T09:13:35.105Z,7.67
2022-11-23T09:16:04.345Z,7.71
2022-11-23T09:18:30.509Z,7.69
2022-11-23T09:20:56.607Z,7.73
2022-11-23T09:23:22.717Z,7.76
2022-11-23T09:25:48.858Z,7.78
2022-11-23T09:28:14.967Z,7.78
2022-11-23T09:30:41.064Z,7.78
2022-11-23T09:33:07.189Z,7.81
2022-11-23T09:35:33.270Z,7.81
2022-11-23T09:37:59.370Z,7.84
2022-11-23T09:40:25.489Z,7.83
2022-11-23T09:42:51.583Z,7.86
2022-11-23T09:45:17.681Z,7.85
2022-11-23T09:47:43.876Z,7.87
2022-11-23T09:50:09.984Z,7.89
2022-11-23T09:52:36.082Z,7.95
2022-11-23T09:55:02.201Z,7.93
2022-11-23T09:57:28.303Z,7.94
2022-11-23T09:59:54.400Z,7.87
2022-11-23T10:02:20.516Z,7.91
2022-11-23T10:04:46.599Z,7.97
2022-11-23T10:07:12.750Z,7.96
2022-11-23T10:09:38.978Z,8.02
2022-11-23T10:12:05.141Z,8.06
2022-11-23T10:14:31.514Z,8.13
2022-11-23T10:16:57.794Z,8.15
2022-11-23T10:19:23.901Z,8.27
2022-11-23T10:21:50.003Z,8.27
2022-11-23T10:24:16.160Z,8.27
2022-11-23T10:26:42.260Z,8.35
2022-11-23T10:29:08.355Z,8.40
2022-11-23T10:31:34.458Z,8.48
2022-11-23T10:34:00.548Z,8.46
2022-11-23T10:36:26.650Z,8.40
2022-11-23T10:38:52.755Z,8.38
2022-11-23T10:41:18.860Z,8.39
2022-11-23T10:43:45.002Z,8.46
2022-11-23T10:46:11.121Z,8.50
2022-11-23T10:48:37.206Z,8.47
2022-11-23T10:51:03.344Z,8.40
2022-11-23T10:53:29.457Z,8.32
2022-11-23T10:55:55.560Z,8.42
2022-11-23T10:58:21.651Z,8.40
2022-11-23T11:00:47.800Z,8.40
2022-11-23T11:03:13.912Z,8.37
2022-11-23T11:06:08.055Z,8.38
2022-11-23T11:08:26.130Z,8.37
2022-11-23T11:10:52.241Z,8.33
2022-11-23T11:13:18.354Z,8.32
2022-11-23T11:15:47.610Z,8.31
2022-11-23T11:18:13.940Z,8.37
2022-11-23T11:20:40.045Z,8.44
2022-11-23T11:23:06.279Z,8.43
2022-11-23T11:25:35.436Z,8.40
2022-11-23T11:28:01.552Z,8.41
2022-11-23T11:30:27.680Z,8.39
2022-11-23T11:32:53.806Z,8.41
2022-11-23T11:35:21.206Z,8.39
2022-11-23T11:37:47.542Z,8.39
2022-11-23T11:40:13.728Z,8.42
2022-11-23T11:42:39.917Z,8.45
2022-11-23T11:45:06.054Z,8.44
2022-11-23T11:47:32.193Z,8.51
2022-11-23T11:49:58.318Z,8.49
2022-11-23T11:52:24.413Z,8.54
2022-11-23T11:54:50.591Z,8.51
2022-11-23T11:57:16.768Z,8.51
2022-11-23T11:59:43.441Z,8.50
2022-11-23T12:02:09.571Z,8.50
2022-11-23T12:04:35.808Z,8.51
2022-11-23T12:07:01.970Z,8.51
2022-11-23T12:09:28.112Z,8.47
2022-11-23T12:11:54.256Z,8.56
2022-11-23T12:14:20.383Z,8.53
2022-11-23T12:16:52.224Z,8.58
2022-11-23T12:19:25.580Z,8.58
2022-11-23T12:24:37.772Z,8.49
2022-11-23T12:27:03.895Z,8.45
2022-11-23T12:29:30.196Z,8.51
2022-11-23T12:31:56.948Z,8.54
2022-11-23T12:34:23.041Z,8.59
2022-11-23T12:36:49.229Z,8.52
2022-11-23T12:39:15.388Z,8.51
2022-11-23T12:41:41.489Z,8.53
2022-11-23T12:44:07.611Z,8.52
2022-11-23T12:46:33.742Z,8.64
2022-11-23T12:48:59.890Z,8.64
2022-11-23T12:51:25.986Z,8.61
2022-11-23T12:53:52.465Z,8.66
2022-11-23T12:56:18.642Z,8.68
2022-11-23T12:58:44.760Z,8.71
2022-11-23T13:01:10.954Z,8.66
2022-11-23T13:03:37.176Z,8.74
2022-11-23T13:06:03.289Z,8.68
2022-11-23T13:08:29.477Z,8.69
2022-11-23T13:10:55.595Z,8.69
2022-11-23T13:13:21.692Z,8.64
2022-11-23T13:15:47.859Z,8.62
2022-11-23T13:18:13.998Z,8.68
2022-11-23T13:20:40.100Z,8.62
2022-11-23T13:23:06.232Z,8.66
2022-11-23T13:25:32.333Z,8.68
2022-11-23T13:27:58.448Z,8.59
2022-11-23T13:30:24.570Z,8.69
2022-11-23T13:32:50.674Z,8.72
2022-11-23T13:35:16.786Z,8.72
2022-11-23T13:37:43.386Z,8.68
2022-11-23T13:40:09.513Z,8.59
2022-11-23T13:42:35.595Z,8.60
2022-11-23T13:45:01.719Z,8.65
2022-11-23T13:47:27.827Z,8.66
2022-11-23T13:49:53.948Z,8.63
2022-11-23T13:52:20.067Z,8.56
2022-11-23T13:54:46.205Z,8.65
2022-11-23T13:57:12.305Z,8.66
2022-11-23T13:59:38.421Z,8.55
2022-11-23T14:02:04.586Z,8.59
2022-11-23T14:04:31.009Z,8.56
2022-11-23T14:06:57.355Z,8.54
2022-11-23T14:09:23.443Z,8.57
2022-11-23T14:11:49.537Z,8.53
2022-11-23T14:14:15.654Z,8.52
2022-11-23T14:16:41.838Z,8.47
2022-11-23T14:19:08.013Z,8.47
2022-11-23T14:21:34.145Z,8.37
2022-11-23T14:24:00.267Z,8.36
2022-11-23T14:26:26.355Z,8.39
2022-11-23T14:28:52.465Z,8.37
2022-11-23T14:31:18.645Z,8.34
2022-11-23T14:33:44.809Z,8.31
2022-11-23T14:36:10.932Z,8.31
2022-11-23T14:38:37.019Z,8.20
2022-11-23T14:41:03.110Z,8.10
2022-11-23T14:43:29.212Z,8.01
2022-11-23T14:45:55.364Z,8.01
2022-11-23T14:48:21.499Z,8.02
2022-11-23T14:50:47.622Z,7.99
2022-11-23T14:53:14.813Z,7.97
2022-11-23T14:55:40.921Z,7.97
2022-11-23T14:58:07.530Z,7.97
2022-11-23T15:00:33.644Z,7.91
2022-11-23T15:02:59.759Z,7.83
2022-11-23T15:05:26.046Z,7.88
2022-11-23T15:07:52.220Z,7.83
2022-11-23T15:10:18.366Z,7.82
2022-11-23T15:12:44.479Z,7.75
2022-11-23T15:15:10.599Z,7.74
2022-11-23T15:17:36.716Z,7.72
2022-11-23T15:20:02.837Z,7.74
2022-11-23T15:22:28.951Z,7.65
2022-11-23T15:24:55.072Z,7.65
2022-11-23T15:27:21.257Z,7.64
2022-11-23T15:29:47.445Z,7.60
2022-11-23T15:32:29.785Z,7.58
2022-11-23T15:34:57.192Z,7.58
2022-11-23T15:37:23.297Z,7.59
2022-11-23T15:39:49.600Z,7.61
2022-11-23T15:42:16.062Z,7.67
2022-11-23T15:44:44.950Z,7.70
2022-11-23T15:47:15.079Z,7.75
2022-11-23T15:49:41.188Z,7.75
2022-11-23T15:52:07.282Z,7.77
2022-11-23T15:54:33.514Z,7.76
2022-11-23T15:56:59.805Z,7.78
2022-11-23T15:59:25.888Z,7.78
2022-11-23T16:01:52.035Z,7.78
2022-11-23T16:04:18.502Z,7.77
2022-11-23T16:06:44.628Z,7.74
2022-11-23T16:09:35.132Z,7.76
2022-11-23T16:11:56.814Z,7.76
2022-11-23T16:14:25.765Z,7.75
2022-11-23T16:16:55.372Z,7.75
2022-11-23T16:19:21.510Z,7.79
2022-11-23T16:21:47.605Z,7.83
2022-11-23T16:24:13.703Z,7.80
2022-11-23T16:26:39.813Z,7.84
2022-11-23T16:29:05.945Z,7.81
2022-11-23T16:31:32.044Z,7.85
2022-11-23T16:33:58.236Z,7.88
2022-11-23T16:36:24.369Z,7.83
2022-11-23T16:38:50.475Z,7.87
2022-11-23T16:41:16.588Z,7.88
2022-11-23T16:43:42.892Z,7.83
2022-11-23T16:46:09.013Z,7.84
2022-11-23T16:48:35.167Z,7.79
2022-11-23T16:51:01.262Z,7.81
2022-11-23T16:53:27.646Z,7.81
2022-11-23T16:55:53.837Z,7.76
2022-11-23T16:58:19.941Z,7.78
2022-11-23T17:00:46.036Z,7.71
2022-11-23T17:03:12.699Z,7.77
2022-11-23T17:05:38.808Z,7.74
2022-11-23T17:08:04.898Z,7.61
2022-11-23T17:10:31.056Z,7.64
2022-11-23T17:12:59.963Z,7.65
2022-11-23T17:15:26.069Z,7.56
2022-11-23T17:17:52.201Z,7.58
2022-11-23T17:20:18.309Z,7.52
2022-11-23T17:22:44.442Z,7.49
2022-11-23T17:25:14.795Z,7.52
2022-11-23T17:27:41.495Z,7.50
2022-11-23T17:30:07.647Z,7.49
2022-11-23T17:32:33.769Z,7.46
2022-11-23T17:34:59.881Z,7.53
2022-11-23T17:37:25.989Z,7.50
2022-11-23T17:39:52.100Z,7.51
2022-11-23T17:42:18.211Z,7.51
2022-11-23T17:44:44.310Z,7.44
2022-11-23T17:47:10.429Z,7.45
2022-11-23T17:49:36.561Z,7.44
2022-11-23T17:52:02.725Z,7.44
2022-11-23T17:54:29.314Z,7.41
2022-11-23T17:56:55.400Z,7.44
2022-11-23T17:59:21.485Z,7.39
2022-11-23T18:01:47.673Z,7.32
2022-11-23T18:04:13.810Z,7.24
2022-11-23T18:06:39.893Z,7.35
2022-11-23T18:09:06.023Z,7.35
2022-11-23T18:11:32.115Z,7.29
2022-11-23T18:13:58.205Z,7.30
2022-11-23T18:16:24.370Z,7.21
2022-11-23T18:18:50.488Z,7.22
2022-11-23T18:21:16.609Z,7.11
2022-11-23T18:23:42.773Z,7.21
2022-11-23T18:26:08.889Z,7.09
2022-11-23T18:28:35.137Z,7.14
2022-11-23T18:31:01.507Z,7.02
2022-11-23T18:33:27.836Z,7.04
2022-11-23T18:35:54.146Z,7.02
2022-11-23T18:38:20.496Z,7.02
2022-11-23T18:40:46.746Z,6.98
2022-11-23T18:43:13.004Z,6.80
2022-11-23T18:45:39.320Z,6.83
2022-11-23T18:48:05.536Z,6.77
2022-11-23T18:50:31.803Z,6.88
2022-11-23T18:52:58.077Z,6.92
2022-11-23T18:55:24.326Z,6.83
2022-11-23T18:57:50.569Z,6.88
2022-11-23T19:00:16.909Z,6.83
2022-11-23T19:02:43.141Z,6.69
2022-11-23T19:05:10.510Z,6.77
2022-11-23T19:07:36.860Z,6.69
2022-11-23T19:10:03.111Z,6.73
2022-11-23T19:12:29.424Z,6.68
2022-11-23T19:14:55.711Z,6.72
2022-11-23T19:17:21.985Z,6.77
2022-11-23T19:19:48.269Z,6.77
2022-11-23T19:22:14.564Z,6.72
2022-11-23T19:24:40.832Z,6.79
2022-11-23T19:27:07.093Z,6.73
2022-11-23T19:29:33.538Z,6.74
2022-11-23T19:31:59.893Z,6.72
2022-11-23T19:34:26.149Z,6.67
2022-11-23T19:36:53.548Z,6.71
2022-11-23T19:39:19.764Z,6.81
2022-11-23T19:41:46.033Z,6.76
2022-11-23T19:44:12.394Z,6.82
2022-11-23T19:46:38.586Z,6.73
2022-11-23T19:49:04.773Z,6.78
2022-11-23T19:51:30.924Z,6.79
2022-11-23T19:53:57.182Z,6.77
2022-11-23T19:56:23.405Z,6.82
2022-11-23T19:58:50.007Z,6.87
2022-11-23T20:01:16.267Z,6.82
2022-11-23T20:03:42.452Z,6.81
2022-11-23T20:06:08.569Z,6.83
2022-11-23T20:08:34.689Z,6.85
2022-11-23T20:11:00.775Z,6.89
2022-11-23T20:13:27.387Z,6.88
2022-11-23T20:15:53.512Z,6.83
2022-11-23T20:18:19.603Z,6.96
2022-11-23T20:20:45.717Z,6.93
2022-11-23T20:23:11.838Z,7.01
2022-11-23T20:25:37.943Z,6.96
2022-11-23T20:28:04.075Z,6.98
2022-11-23T20:30:30.182Z,7.02
2022-11-23T20:32:56.283Z,7.04
2022-11-23T20:35:22.430Z,6.96
2022-11-23T20:37:48.525Z,6.94
2022-11-23T20:40:14.621Z,6.99
2022-11-23T20:42:40.730Z,7.10
2022-11-23T20:45:06.823Z,7.09
2022-11-23T20:47:32.968Z,7.01
2022-11-23T20:49:59.133Z,7.11
2022-11-23T20:52:25.256Z,7.10
2022-11-23T20:54:51.340Z,7.06
2022-11-23T20:57:17.447Z,7.07
2022-11-23T20:59:43.537Z,7.04
2022-11-23T21:02:09.735Z,7.05
2022-11-23T21:04:36.433Z,7.12
2022-11-23T21:07:02.645Z,7.17
2022-11-23T21:09:28.738Z,7.16
2022-11-23T21:11:54.930Z,7.19
2022-11-23T21:14:21.059Z,7.13
2022-11-23T21:16:47.148Z,7.19
2022-11-23T21:19:13.270Z,7.23
2022-11-23T21:21:39.375Z,7.25
2022-11-23T21:24:05.606Z,7.20
2022-11-23T21:26:31.724Z,7.15
2022-11-23T21:28:57.823Z,7.16
2022-11-23T21:31:23.952Z,7.13
2022-11-23T21:33:53.788Z,7.04
2022-11-23T21:36:20.261Z,7.10
2022-11-23T21:38:46.360Z,7.08
2022-11-23T21:41:12.479Z,7.04
2022-11-23T21:43:38.579Z,7.05
2022-11-23T21:46:04.687Z,7.08
2022-11-23T21:48:30.837Z,7.10
2022-11-23T21:50:56.936Z,7.09
2022-11-23T21:53:23.035Z,7.12
2022-11-23T21:55:49.153Z,7.10
2022-11-23T21:58:15.236Z,7.13
2022-11-23T22:00:41.492Z,7.09
2022-11-23T22:03:07.630Z,7.19
2022-11-23T22:05:33.730Z,7.10
2022-11-23T22:08:27.847Z,7.17
2022-11-23T22:10:45.943Z,7.17
2022-11-23T22:13:12.072Z,7.17
2022-11-23T22:15:38.176Z,7.22
2022-11-23T22:18:04.381Z,7.24
2022-11-23T22:20:30.480Z,7.26
2022-11-23T22:22:56.576Z,7.28
2022-11-23T22:25:22.680Z,7.31
2022-11-23T22:27:48.785Z,7.39
2022-11-23T22:30:14.863Z,7.36
2022-11-23T22:32:40.982Z,7.35
2022-11-23T22:35:07.069Z,7.32
2022-11-23T22:37:33.151Z,7.34
2022-11-23T22:39:59.352Z,7.36
2022-11-23T22:42:25.443Z,7.33
2022-11-23T22:44:51.536Z,7.36
2022-11-23T22:47:17.642Z,7.30
2022-11-23T22:49:43.732Z,7.31
2022-11-23T22:52:09.828Z,7.30
2022-11-23T22:54:36.112Z,7.32
2022-11-23T22:57:02.355Z,7.31
2022-11-23T22:59:28.457Z,7.35
2022-11-23T23:01:54.569Z,7.33
2022-11-23T23:04:20.665Z,7.37
2022-11-23T23:06:46.761Z,7.36
2022-11-23T23:09:13.378Z,7.33
2022-11-23T23:11:39.472Z,7.35
2022-11-23T23:14:11.546Z,7.29
2022-11-23T23:16:37.859Z,7.33
2022-11-23T23:19:03.975Z,7.34
2022-11-23T23:21:30.332Z,7.34
2022-11-23T23:23:56.497Z,7.30
2022-11-23T23:26:22.593Z,7.34
2022-11-23T23:28:48.709Z,7.34
2022-11-23T23:31:14.902Z,7.33
2022-11-23T23:33:41.053Z,7.41
2022-11-23T23:36:07.135Z,7.33
2022-11-23T23:38:33.257Z,7.40
2022-11-23T23:40:59.352Z,7.43
2022-11-23T23:43:25.447Z,7.43
2022-11-23T23:45:51.599Z,7.38
2022-11-23T23:48:17.743Z,7.48
2022-11-23T23:50:43.847Z,7.50
2022-11-23T23:53:09.961Z,7.51
2022-11-23T23:55:36.064Z,7.53
2022-11-23T23:58:02.197Z,7.50
